sensor_id;sensor_type;location;lat;lon;timestamp;temperature;humidity
7720;DHT22;3902;49.474;8.616;2022-07-29T00:01:00;24.20;86.50
7720;DHT22;3902;49.474;8.616;2022-07-29T00:03:26;24.20;86.90
7720;DHT22;3902;49.474;8.616;2022-07-29T00:05:51;24.10;87.10
7720;DHT22;3902;49.474;8.616;2022-07-29T00:08:18;24.10;87.20
7720;DHT22;3902;49.474;8.616;2022-07-29T00:10:44;24.10;87.60
7720;DHT22;3902;49.474;8.616;2022-07-29T00:13:09;24.00;88.20
7720;DHT22;3902;49.474;8.616;2022-07-29T00:15:35;24.00;88.60
7720;DHT22;3902;49.474;8.616;2022-07-29T00:18:00;24.00;89.80
7720;DHT22;3902;49.474;8.616;2022-07-29T00:20:26;24.00;90.00
7720;DHT22;3902;49.474;8.616;2022-07-29T00:22:52;24.00;90.40
7720;DHT22;3902;49.474;8.616;2022-07-29T00:25:18;23.90;90.70
7720;DHT22;3902;49.474;8.616;2022-07-29T00:27:44;23.90;90.80
7720;DHT22;3902;49.474;8.616;2022-07-29T00:30:11;23.90;91.20
7720;DHT22;3902;49.474;8.616;2022-07-29T00:32:37;23.90;91.20
7720;DHT22;3902;49.474;8.616;2022-07-29T00:35:03;23.90;91.60
7720;DHT22;3902;49.474;8.616;2022-07-29T00:37:47;23.90;91.70
7720;DHT22;3902;49.474;8.616;2022-07-29T00:40:13;23.90;92.00
7720;DHT22;3902;49.474;8.616;2022-07-29T00:42:43;23.80;91.80
7720;DHT22;3902;49.474;8.616;2022-07-29T00:45:09;23.80;92.20
7720;DHT22;3902;49.474;8.616;2022-07-29T00:47:35;23.80;92.00
7720;DHT22;3902;49.474;8.616;2022-07-29T00:50:00;23.80;92.30
7720;DHT22;3902;49.474;8.616;2022-07-29T00:52:26;23.80;92.10
7720;DHT22;3902;49.474;8.616;2022-07-29T00:54:52;23.80;92.10
7720;DHT22;3902;49.474;8.616;2022-07-29T00:57:17;23.80;92.10
7720;DHT22;3902;49.474;8.616;2022-07-29T00:59:43;23.80;92.10
7720;DHT22;3902;49.474;8.616;2022-07-29T01:02:09;23.70;92.30
7720;DHT22;3902;49.474;8.616;2022-07-29T01:04:34;23.70;92.40
7720;DHT22;3902;49.474;8.616;2022-07-29T01:07:04;23.70;92.40
7720;DHT22;3902;49.474;8.616;2022-07-29T01:09:31;23.70;92.50
7720;DHT22;3902;49.474;8.616;2022-07-29T01:11:57;23.60;92.50
7720;DHT22;3902;49.474;8.616;2022-07-29T01:14:23;23.60;92.60
7720;DHT22;3902;49.474;8.616;2022-07-29T01:17:00;23.60;92.70
7720;DHT22;3902;49.474;8.616;2022-07-29T01:25:00;23.50;92.80
7720;DHT22;3902;49.474;8.616;2022-07-29T01:30:24;23.40;92.90
7720;DHT22;3902;49.474;8.616;2022-07-29T01:32:59;23.40;92.90
7720;DHT22;3902;49.474;8.616;2022-07-29T01:35:28;23.40;93.00
7720;DHT22;3902;49.474;8.616;2022-07-29T01:41:02;23.30;93.00
7720;DHT22;3902;49.474;8.616;2022-07-29T01:43:42;23.30;92.90
7720;DHT22;3902;49.474;8.616;2022-07-29T01:46:13;23.30;93.00
7720;DHT22;3902;49.474;8.616;2022-07-29T01:48:48;23.20;92.80
7720;DHT22;3902;49.474;8.616;2022-07-29T01:51:33;23.20;92.80
7720;DHT22;3902;49.474;8.616;2022-07-29T01:56:27;23.10;93.10
7720;DHT22;3902;49.474;8.616;2022-07-29T01:58:57;23.10;93.20
7720;DHT22;3902;49.474;8.616;2022-07-29T02:01:24;23.10;93.20
7720;DHT22;3902;49.474;8.616;2022-07-29T02:03:53;23.00;93.20
7720;DHT22;3902;49.474;8.616;2022-07-29T02:06:21;23.10;93.40
7720;DHT22;3902;49.474;8.616;2022-07-29T02:08:49;23.00;93.30
7720;DHT22;3902;49.474;8.616;2022-07-29T02:11:15;23.00;93.10
7720;DHT22;3902;49.474;8.616;2022-07-29T02:13:42;23.00;93.10
7720;DHT22;3902;49.474;8.616;2022-07-29T02:16:09;22.90;93.20
7720;DHT22;3902;49.474;8.616;2022-07-29T02:18:37;22.90;93.00
7720;DHT22;3902;49.474;8.616;2022-07-29T02:21:05;22.90;93.20
7720;DHT22;3902;49.474;8.616;2022-07-29T02:23:31;22.80;93.30
7720;DHT22;3902;49.474;8.616;2022-07-29T02:25:58;22.90;93.00
7720;DHT22;3902;49.474;8.616;2022-07-29T02:28:26;22.80;93.10
7720;DHT22;3902;49.474;8.616;2022-07-29T02:30:53;22.80;92.90
7720;DHT22;3902;49.474;8.616;2022-07-29T02:33:21;22.80;93.00
7720;DHT22;3902;49.474;8.616;2022-07-29T02:35:49;22.80;92.80
7720;DHT22;3902;49.474;8.616;2022-07-29T02:38:16;22.70;92.60
7720;DHT22;3902;49.474;8.616;2022-07-29T02:41:04;22.70;92.30
7720;DHT22;3902;49.474;8.616;2022-07-29T02:43:31;22.70;92.10
7720;DHT22;3902;49.474;8.616;2022-07-29T02:45:59;22.60;92.00
7720;DHT22;3902;49.474;8.616;2022-07-29T02:48:32;22.60;92.00
7720;DHT22;3902;49.474;8.616;2022-07-29T02:51:06;22.50;91.90
7720;DHT22;3902;49.474;8.616;2022-07-29T02:53:33;22.50;91.90
7720;DHT22;3902;49.474;8.616;2022-07-29T02:56:06;22.40;91.90
7720;DHT22;3902;49.474;8.616;2022-07-29T02:59:00;22.40;92.10
7720;DHT22;3902;49.474;8.616;2022-07-29T03:01:31;22.40;91.90
7720;DHT22;3902;49.474;8.616;2022-07-29T03:04:00;22.30;91.90
7720;DHT22;3902;49.474;8.616;2022-07-29T03:06:27;22.30;92.00
7720;DHT22;3902;49.474;8.616;2022-07-29T03:08:54;22.30;92.10
7720;DHT22;3902;49.474;8.616;2022-07-29T03:11:20;22.30;92.00
7720;DHT22;3902;49.474;8.616;2022-07-29T03:13:47;22.30;92.20
7720;DHT22;3902;49.474;8.616;2022-07-29T03:16:13;22.20;92.30
7720;DHT22;3902;49.474;8.616;2022-07-29T03:18:39;22.20;92.40
7720;DHT22;3902;49.474;8.616;2022-07-29T03:21:05;22.20;92.40
7720;DHT22;3902;49.474;8.616;2022-07-29T03:23:31;22.20;92.50
7720;DHT22;3902;49.474;8.616;2022-07-29T03:25:57;22.20;92.80
7720;DHT22;3902;49.474;8.616;2022-07-29T03:28:22;22.10;92.80
7720;DHT22;3902;49.474;8.616;2022-07-29T03:30:49;22.10;92.90
7720;DHT22;3902;49.474;8.616;2022-07-29T03:33:15;22.00;92.90
7720;DHT22;3902;49.474;8.616;2022-07-29T03:35:41;22.00;93.50
7720;DHT22;3902;49.474;8.616;2022-07-29T03:38:06;22.00;93.10
7720;DHT22;3902;49.474;8.616;2022-07-29T03:40:40;22.00;93.30
7720;DHT22;3902;49.474;8.616;2022-07-29T03:43:08;21.90;93.30
7720;DHT22;3902;49.474;8.616;2022-07-29T03:45:35;21.90;93.40
7720;DHT22;3902;49.474;8.616;2022-07-29T03:48:07;21.90;93.50
7720;DHT22;3902;49.474;8.616;2022-07-29T03:50:34;21.90;93.60
7720;DHT22;3902;49.474;8.616;2022-07-29T03:53:00;21.80;93.70
7720;DHT22;3902;49.474;8.616;2022-07-29T03:55:28;21.80;93.70
7720;DHT22;3902;49.474;8.616;2022-07-29T03:57:55;21.80;93.70
7720;DHT22;3902;49.474;8.616;2022-07-29T04:00:23;21.80;93.90
7720;DHT22;3902;49.474;8.616;2022-07-29T04:02:49;21.70;93.80
7720;DHT22;3902;49.474;8.616;2022-07-29T04:05:15;21.70;93.90
7720;DHT22;3902;49.474;8.616;2022-07-29T04:07:45;21.70;94.00
7720;DHT22;3902;49.474;8.616;2022-07-29T04:10:11;21.70;94.10
7720;DHT22;3902;49.474;8.616;2022-07-29T04:12:37;21.70;94.20
7720;DHT22;3902;49.474;8.616;2022-07-29T04:15:04;21.70;94.30
7720;DHT22;3902;49.474;8.616;2022-07-29T04:17:30;21.70;94.40
7720;DHT22;3902;49.474;8.616;2022-07-29T04:19:55;21.70;94.40
7720;DHT22;3902;49.474;8.616;2022-07-29T04:22:21;21.70;94.60
7720;DHT22;3902;49.474;8.616;2022-07-29T04:24:46;21.60;94.70
7720;DHT22;3902;49.474;8.616;2022-07-29T04:27:12;21.70;94.90
7720;DHT22;3902;49.474;8.616;2022-07-29T04:29:37;21.60;95.00
7720;DHT22;3902;49.474;8.616;2022-07-29T04:32:03;21.60;95.20
7720;DHT22;3902;49.474;8.616;2022-07-29T04:34:29;21.60;95.40
7720;DHT22;3902;49.474;8.616;2022-07-29T04:36:55;21.60;95.70
7720;DHT22;3902;49.474;8.616;2022-07-29T04:39:20;21.60;95.80
7720;DHT22;3902;49.474;8.616;2022-07-29T04:41:46;21.60;96.10
7720;DHT22;3902;49.474;8.616;2022-07-29T04:44:12;21.60;96.20
7720;DHT22;3902;49.474;8.616;2022-07-29T04:46:38;21.60;96.40
7720;DHT22;3902;49.474;8.616;2022-07-29T04:49:04;21.60;96.70
7720;DHT22;3902;49.474;8.616;2022-07-29T04:51:29;21.60;96.90
7720;DHT22;3902;49.474;8.616;2022-07-29T04:53:55;21.60;97.10
7720;DHT22;3902;49.474;8.616;2022-07-29T04:56:20;21.60;97.20
7720;DHT22;3902;49.474;8.616;2022-07-29T04:58:46;21.70;97.60
7720;DHT22;3902;49.474;8.616;2022-07-29T05:01:11;21.70;97.70
7720;DHT22;3902;49.474;8.616;2022-07-29T05:03:37;21.70;98.00
7720;DHT22;3902;49.474;8.616;2022-07-29T05:06:03;21.70;98.20
7720;DHT22;3902;49.474;8.616;2022-07-29T05:08:28;21.70;98.50
7720;DHT22;3902;49.474;8.616;2022-07-29T05:10:54;21.70;98.80
7720;DHT22;3902;49.474;8.616;2022-07-29T05:13:19;21.70;98.90
7720;DHT22;3902;49.474;8.616;2022-07-29T05:15:45;21.70;99.10
7720;DHT22;3902;49.474;8.616;2022-07-29T05:18:11;21.70;99.40
7720;DHT22;3902;49.474;8.616;2022-07-29T05:20:36;21.80;99.40
7720;DHT22;3902;49.474;8.616;2022-07-29T05:23:02;21.80;99.70
7720;DHT22;3902;49.474;8.616;2022-07-29T05:25:28;21.80;99.80
7720;DHT22;3902;49.474;8.616;2022-07-29T05:27:54;21.80;99.90
7720;DHT22;3902;49.474;8.616;2022-07-29T05:30:20;21.80;99.90
7720;DHT22;3902;49.474;8.616;2022-07-29T05:32:46;21.90;99.90
7720;DHT22;3902;49.474;8.616;2022-07-29T05:35:13;21.90;99.90
7720;DHT22;3902;49.474;8.616;2022-07-29T05:37:39;21.90;99.90
7720;DHT22;3902;49.474;8.616;2022-07-29T05:40:05;22.00;99.90
7720;DHT22;3902;49.474;8.616;2022-07-29T05:42:31;22.00;99.90
7720;DHT22;3902;49.474;8.616;2022-07-29T05:44:57;22.00;99.90
7720;DHT22;3902;49.474;8.616;2022-07-29T05:47:23;22.10;99.90
7720;DHT22;3902;49.474;8.616;2022-07-29T05:49:48;22.10;99.90
7720;DHT22;3902;49.474;8.616;2022-07-29T05:52:14;22.10;99.90
7720;DHT22;3902;49.474;8.616;2022-07-29T05:54:40;22.10;99.90
7720;DHT22;3902;49.474;8.616;2022-07-29T05:57:06;22.10;99.90
7720;DHT22;3902;49.474;8.616;2022-07-29T05:59:35;22.20;99.90
7720;DHT22;3902;49.474;8.616;2022-07-29T06:02:01;22.20;99.90
7720;DHT22;3902;49.474;8.616;2022-07-29T06:04:27;22.30;99.90
7720;DHT22;3902;49.474;8.616;2022-07-29T06:06:52;22.30;99.90
7720;DHT22;3902;49.474;8.616;2022-07-29T06:09:18;22.30;99.90
7720;DHT22;3902;49.474;8.616;2022-07-29T06:11:44;22.30;99.90
7720;DHT22;3902;49.474;8.616;2022-07-29T06:14:09;22.30;99.90
7720;DHT22;3902;49.474;8.616;2022-07-29T06:16:35;22.30;99.90
7720;DHT22;3902;49.474;8.616;2022-07-29T06:19:00;22.40;99.90
7720;DHT22;3902;49.474;8.616;2022-07-29T06:21:26;22.40;99.90
7720;DHT22;3902;49.474;8.616;2022-07-29T06:23:51;22.40;99.90
7720;DHT22;3902;49.474;8.616;2022-07-29T06:26:17;22.50;99.90
7720;DHT22;3902;49.474;8.616;2022-07-29T06:28:42;22.50;99.90
7720;DHT22;3902;49.474;8.616;2022-07-29T06:31:08;22.50;99.90
7720;DHT22;3902;49.474;8.616;2022-07-29T06:33:34;22.60;99.90
7720;DHT22;3902;49.474;8.616;2022-07-29T06:35:59;22.60;99.90
7720;DHT22;3902;49.474;8.616;2022-07-29T06:38:25;22.70;99.90
7720;DHT22;3902;49.474;8.616;2022-07-29T06:40:51;22.70;99.90
7720;DHT22;3902;49.474;8.616;2022-07-29T06:43:27;22.80;99.90
7720;DHT22;3902;49.474;8.616;2022-07-29T06:45:52;22.80;99.90
7720;DHT22;3902;49.474;8.616;2022-07-29T06:48:18;22.90;99.90
7720;DHT22;3902;49.474;8.616;2022-07-29T06:50:43;22.90;99.90
7720;DHT22;3902;49.474;8.616;2022-07-29T06:53:09;23.00;99.90
7720;DHT22;3902;49.474;8.616;2022-07-29T06:55:34;23.10;99.90
7720;DHT22;3902;49.474;8.616;2022-07-29T06:58:02;23.10;99.90
7720;DHT22;3902;49.474;8.616;2022-07-29T07:00:27;23.20;99.90
7720;DHT22;3902;49.474;8.616;2022-07-29T07:02:53;23.30;99.90
7720;DHT22;3902;49.474;8.616;2022-07-29T07:05:18;23.30;99.90
7720;DHT22;3902;49.474;8.616;2022-07-29T07:07:44;23.30;99.90
7720;DHT22;3902;49.474;8.616;2022-07-29T07:10:09;23.30;99.90
7720;DHT22;3902;49.474;8.616;2022-07-29T07:12:35;23.30;99.90
7720;DHT22;3902;49.474;8.616;2022-07-29T07:15:01;23.40;99.90
7720;DHT22;3902;49.474;8.616;2022-07-29T07:17:26;23.40;99.90
7720;DHT22;3902;49.474;8.616;2022-07-29T07:19:52;23.50;99.90
7720;DHT22;3902;49.474;8.616;2022-07-29T07:22:17;23.60;99.90
7720;DHT22;3902;49.474;8.616;2022-07-29T07:24:43;23.60;99.90
7720;DHT22;3902;49.474;8.616;2022-07-29T07:27:08;23.60;99.90
7720;DHT22;3902;49.474;8.616;2022-07-29T07:29:34;23.60;99.90
7720;DHT22;3902;49.474;8.616;2022-07-29T07:31:59;23.60;99.90
7720;DHT22;3902;49.474;8.616;2022-07-29T07:34:25;23.60;99.90
7720;DHT22;3902;49.474;8.616;2022-07-29T07:36:50;23.70;99.90
7720;DHT22;3902;49.474;8.616;2022-07-29T07:39:16;23.70;99.90
7720;DHT22;3902;49.474;8.616;2022-07-29T07:41:41;23.90;99.90
7720;DHT22;3902;49.474;8.616;2022-07-29T07:44:07;23.90;99.90
7720;DHT22;3902;49.474;8.616;2022-07-29T07:46:32;24.00;99.90
7720;DHT22;3902;49.474;8.616;2022-07-29T07:48:58;24.10;99.90
7720;DHT22;3902;49.474;8.616;2022-07-29T07:51:23;24.20;99.90
7720;DHT22;3902;49.474;8.616;2022-07-29T07:53:49;24.20;99.90
7720;DHT22;3902;49.474;8.616;2022-07-29T07:56:16;24.20;99.90
7720;DHT22;3902;49.474;8.616;2022-07-29T07:58:42;24.20;99.90
7720;DHT22;3902;49.474;8.616;2022-07-29T08:01:08;24.20;99.90
7720;DHT22;3902;49.474;8.616;2022-07-29T08:03:34;24.20;99.90
7720;DHT22;3902;49.474;8.616;2022-07-29T08:06:00;24.20;99.90
7720;DHT22;3902;49.474;8.616;2022-07-29T08:08:25;24.20;99.90
7720;DHT22;3902;49.474;8.616;2022-07-29T08:10:51;24.20;99.90
7720;DHT22;3902;49.474;8.616;2022-07-29T08:13:18;24.20;99.90
7720;DHT22;3902;49.474;8.616;2022-07-29T08:15:44;24.20;99.90
7720;DHT22;3902;49.474;8.616;2022-07-29T08:18:11;24.20;99.90
7720;DHT22;3902;49.474;8.616;2022-07-29T08:20:37;24.20;99.90
7720;DHT22;3902;49.474;8.616;2022-07-29T08:23:06;24.20;99.90
7720;DHT22;3902;49.474;8.616;2022-07-29T08:25:35;24.30;99.90
7720;DHT22;3902;49.474;8.616;2022-07-29T08:28:01;24.30;99.90
7720;DHT22;3902;49.474;8.616;2022-07-29T08:30:26;24.30;99.90
7720;DHT22;3902;49.474;8.616;2022-07-29T08:32:52;24.30;99.90
7720;DHT22;3902;49.474;8.616;2022-07-29T08:35:20;24.20;99.90
7720;DHT22;3902;49.474;8.616;2022-07-29T08:37:45;24.30;99.90
7720;DHT22;3902;49.474;8.616;2022-07-29T08:40:11;24.30;99.90
7720;DHT22;3902;49.474;8.616;2022-07-29T08:42:37;24.40;99.90
7720;DHT22;3902;49.474;8.616;2022-07-29T08:45:04;24.40;99.90
7720;DHT22;3902;49.474;8.616;2022-07-29T08:47:30;24.50;99.90
7720;DHT22;3902;49.474;8.616;2022-07-29T08:49:55;24.50;99.90
7720;DHT22;3902;49.474;8.616;2022-07-29T08:52:21;24.50;99.90
7720;DHT22;3902;49.474;8.616;2022-07-29T08:54:49;24.60;99.90
7720;DHT22;3902;49.474;8.616;2022-07-29T08:57:16;24.70;99.90
7720;DHT22;3902;49.474;8.616;2022-07-29T08:59:42;24.70;99.90
7720;DHT22;3902;49.474;8.616;2022-07-29T09:02:18;24.80;99.90
7720;DHT22;3902;49.474;8.616;2022-07-29T09:04:44;24.90;99.90
7720;DHT22;3902;49.474;8.616;2022-07-29T09:07:16;25.00;99.90
7720;DHT22;3902;49.474;8.616;2022-07-29T09:09:43;25.10;99.90
7720;DHT22;3902;49.474;8.616;2022-07-29T09:12:10;25.20;99.90
7720;DHT22;3902;49.474;8.616;2022-07-29T09:14:40;25.30;99.90
7720;DHT22;3902;49.474;8.616;2022-07-29T09:17:06;25.40;99.90
7720;DHT22;3902;49.474;8.616;2022-07-29T09:19:34;25.40;99.90
7720;DHT22;3902;49.474;8.616;2022-07-29T09:22:02;25.40;99.90
7720;DHT22;3902;49.474;8.616;2022-07-29T09:27:00;25.40;99.90
7720;DHT22;3902;49.474;8.616;2022-07-29T09:29:26;25.40;99.90
7720;DHT22;3902;49.474;8.616;2022-07-29T09:31:53;25.40;99.90
7720;DHT22;3902;49.474;8.616;2022-07-29T09:34:24;25.50;99.90
7720;DHT22;3902;49.474;8.616;2022-07-29T09:36:51;25.60;99.90
7720;DHT22;3902;49.474;8.616;2022-07-29T09:39:33;25.60;99.90
7720;DHT22;3902;49.474;8.616;2022-07-29T09:42:02;25.70;99.90
7720;DHT22;3902;49.474;8.616;2022-07-29T09:44:47;25.80;99.90
7720;DHT22;3902;49.474;8.616;2022-07-29T09:47:14;25.90;99.90
7720;DHT22;3902;49.474;8.616;2022-07-29T09:49:57;26.00;99.90
7720;DHT22;3902;49.474;8.616;2022-07-29T09:52:25;26.00;99.90
7720;DHT22;3902;49.474;8.616;2022-07-29T09:54:51;26.10;99.90
7720;DHT22;3902;49.474;8.616;2022-07-29T09:57:28;26.10;99.90
7720;DHT22;3902;49.474;8.616;2022-07-29T10:02:22;26.00;99.90
7720;DHT22;3902;49.474;8.616;2022-07-29T10:04:52;25.90;99.90
7720;DHT22;3902;49.474;8.616;2022-07-29T10:07:18;25.90;99.90
7720;DHT22;3902;49.474;8.616;2022-07-29T10:09:55;25.90;99.90
7720;DHT22;3902;49.474;8.616;2022-07-29T10:12:21;25.90;99.90
7720;DHT22;3902;49.474;8.616;2022-07-29T10:14:47;26.00;99.90
7720;DHT22;3902;49.474;8.616;2022-07-29T10:17:13;26.00;99.90
7720;DHT22;3902;49.474;8.616;2022-07-29T10:19:40;25.90;99.80
7720;DHT22;3902;49.474;8.616;2022-07-29T10:22:09;26.00;99.90
7720;DHT22;3902;49.474;8.616;2022-07-29T10:24:35;26.00;99.90
7720;DHT22;3902;49.474;8.616;2022-07-29T10:27:03;26.10;99.70
7720;DHT22;3902;49.474;8.616;2022-07-29T10:29:29;26.20;99.00
7720;DHT22;3902;49.474;8.616;2022-07-29T10:32:18;26.30;98.90
7720;DHT22;3902;49.474;8.616;2022-07-29T10:37:52;26.60;98.50
7720;DHT22;3902;49.474;8.616;2022-07-29T10:40:28;26.60;98.20
7720;DHT22;3902;49.474;8.616;2022-07-29T10:43:23;26.70;98.50
7720;DHT22;3902;49.474;8.616;2022-07-29T10:45:56;26.80;98.20
7720;DHT22;3902;49.474;8.616;2022-07-29T10:48:22;26.90;97.40
7720;DHT22;3902;49.474;8.616;2022-07-29T10:51:02;27.10;98.00
7720;DHT22;3902;49.474;8.616;2022-07-29T10:53:48;27.40;97.80
7720;DHT22;3902;49.474;8.616;2022-07-29T10:56:27;27.50;96.60
7720;DHT22;3902;49.474;8.616;2022-07-29T11:01:50;27.80;96.00
7720;DHT22;3902;49.474;8.616;2022-07-29T11:07:08;28.20;96.10
7720;DHT22;3902;49.474;8.616;2022-07-29T11:09:33;28.30;94.80
7720;DHT22;3902;49.474;8.616;2022-07-29T11:12:00;28.40;95.50
7720;DHT22;3902;49.474;8.616;2022-07-29T11:17:18;28.90;94.90
7720;DHT22;3902;49.474;8.616;2022-07-29T11:19:44;29.10;94.00
7720;DHT22;3902;49.474;8.616;2022-07-29T11:22:11;29.10;93.60
7720;DHT22;3902;49.474;8.616;2022-07-29T11:24:37;29.20;93.80
7720;DHT22;3902;49.474;8.616;2022-07-29T11:29:32;29.20;93.30
7720;DHT22;3902;49.474;8.616;2022-07-29T11:32:10;29.10;93.10
7720;DHT22;3902;49.474;8.616;2022-07-29T11:34:36;29.00;93.50
7720;DHT22;3902;49.474;8.616;2022-07-29T11:40:26;29.40;93.10
7720;DHT22;3902;49.474;8.616;2022-07-29T11:50:13;29.50;91.70
7720;DHT22;3902;49.474;8.616;2022-07-29T11:52:41;29.60;91.70
7720;DHT22;3902;49.474;8.616;2022-07-29T11:55:19;29.50;91.40
7720;DHT22;3902;49.474;8.616;2022-07-29T11:57:58;29.60;91.40
7720;DHT22;3902;49.474;8.616;2022-07-29T12:00:33;29.70;91.70
7720;DHT22;3902;49.474;8.616;2022-07-29T12:03:02;29.70;91.80
7720;DHT22;3902;49.474;8.616;2022-07-29T12:05:46;29.80;91.80
7720;DHT22;3902;49.474;8.616;2022-07-29T12:08:17;30.00;91.90
7720;DHT22;3902;49.474;8.616;2022-07-29T12:10:45;30.10;90.80
7720;DHT22;3902;49.474;8.616;2022-07-29T12:13:13;30.10;90.70
7720;DHT22;3902;49.474;8.616;2022-07-29T12:15:40;29.90;91.00
7720;DHT22;3902;49.474;8.616;2022-07-29T12:18:17;29.80;90.80
7720;DHT22;3902;49.474;8.616;2022-07-29T12:20:43;29.90;90.60
7720;DHT22;3902;49.474;8.616;2022-07-29T12:23:10;30.00;90.70
7720;DHT22;3902;49.474;8.616;2022-07-29T12:25:37;30.10;91.10
7720;DHT22;3902;49.474;8.616;2022-07-29T12:28:05;30.40;91.00
7720;DHT22;3902;49.474;8.616;2022-07-29T12:33:00;30.40;89.30
7720;DHT22;3902;49.474;8.616;2022-07-29T12:35:26;30.40;89.50
7720;DHT22;3902;49.474;8.616;2022-07-29T12:37:52;30.60;89.70
7720;DHT22;3902;49.474;8.616;2022-07-29T12:40:18;30.60;89.60
7720;DHT22;3902;49.474;8.616;2022-07-29T12:43:22;30.70;89.20
7720;DHT22;3902;49.474;8.616;2022-07-29T12:45:49;30.90;89.10
7720;DHT22;3902;49.474;8.616;2022-07-29T12:48:16;31.20;88.80
7720;DHT22;3902;49.474;8.616;2022-07-29T12:50:56;31.30;87.70
7720;DHT22;3902;49.474;8.616;2022-07-29T12:53:22;31.40;88.30
7720;DHT22;3902;49.474;8.616;2022-07-29T12:55:50;31.50;87.10
7720;DHT22;3902;49.474;8.616;2022-07-29T12:58:37;31.50;84.90
7720;DHT22;3902;49.474;8.616;2022-07-29T13:01:07;31.70;84.40
7720;DHT22;3902;49.474;8.616;2022-07-29T13:06:36;31.80;83.00
7720;DHT22;3902;49.474;8.616;2022-07-29T13:09:11;32.00;83.20
7720;DHT22;3902;49.474;8.616;2022-07-29T13:11:44;32.10;81.40
7720;DHT22;3902;49.474;8.616;2022-07-29T13:14:12;32.10;79.50
7720;DHT22;3902;49.474;8.616;2022-07-29T13:17:08;31.90;79.90
7720;DHT22;3902;49.474;8.616;2022-07-29T13:19:36;32.00;79.40
7720;DHT22;3902;49.474;8.616;2022-07-29T13:22:02;32.00;79.40
7720;DHT22;3902;49.474;8.616;2022-07-29T13:24:28;32.00;79.80
7720;DHT22;3902;49.474;8.616;2022-07-29T13:26:54;32.00;78.20
7720;DHT22;3902;49.474;8.616;2022-07-29T13:29:19;32.10;78.80
7720;DHT22;3902;49.474;8.616;2022-07-29T13:31:45;32.10;79.80
7720;DHT22;3902;49.474;8.616;2022-07-29T13:34:11;32.20;79.30
7720;DHT22;3902;49.474;8.616;2022-07-29T13:36:36;32.00;78.60
7720;DHT22;3902;49.474;8.616;2022-07-29T13:39:03;31.60;78.40
7720;DHT22;3902;49.474;8.616;2022-07-29T13:41:29;31.30;78.10
7720;DHT22;3902;49.474;8.616;2022-07-29T13:43:55;31.20;77.60
7720;DHT22;3902;49.474;8.616;2022-07-29T13:46:20;30.90;77.70
7720;DHT22;3902;49.474;8.616;2022-07-29T13:48:46;30.90;78.20
7720;DHT22;3902;49.474;8.616;2022-07-29T13:51:11;31.00;79.80
7720;DHT22;3902;49.474;8.616;2022-07-29T13:53:37;30.90;79.00
7720;DHT22;3902;49.474;8.616;2022-07-29T13:56:03;30.80;80.20
7720;DHT22;3902;49.474;8.616;2022-07-29T13:58:31;30.70;79.70
7720;DHT22;3902;49.474;8.616;2022-07-29T14:00:58;30.70;80.80
7720;DHT22;3902;49.474;8.616;2022-07-29T14:03:24;30.60;79.50
7720;DHT22;3902;49.474;8.616;2022-07-29T14:05:50;30.40;79.70
7720;DHT22;3902;49.474;8.616;2022-07-29T14:08:15;30.40;79.80
7720;DHT22;3902;49.474;8.616;2022-07-29T14:10:41;30.20;79.50
7720;DHT22;3902;49.474;8.616;2022-07-29T14:13:06;30.00;79.10
7720;DHT22;3902;49.474;8.616;2022-07-29T14:15:32;29.90;79.60
7720;DHT22;3902;49.474;8.616;2022-07-29T14:17:58;29.90;79.60
7720;DHT22;3902;49.474;8.616;2022-07-29T14:20:23;29.80;78.20
7720;DHT22;3902;49.474;8.616;2022-07-29T14:22:49;29.80;77.90
7720;DHT22;3902;49.474;8.616;2022-07-29T14:25:14;29.80;78.20
7720;DHT22;3902;49.474;8.616;2022-07-29T14:27:40;29.80;78.50
7720;DHT22;3902;49.474;8.616;2022-07-29T14:30:06;29.80;78.90
7720;DHT22;3902;49.474;8.616;2022-07-29T14:32:32;29.70;78.10
7720;DHT22;3902;49.474;8.616;2022-07-29T14:34:57;29.60;77.80
7720;DHT22;3902;49.474;8.616;2022-07-29T14:37:23;29.60;77.50
7720;DHT22;3902;49.474;8.616;2022-07-29T14:39:48;29.60;77.60
7720;DHT22;3902;49.474;8.616;2022-07-29T14:42:14;29.70;77.90
7720;DHT22;3902;49.474;8.616;2022-07-29T14:44:40;29.60;77.20
7720;DHT22;3902;49.474;8.616;2022-07-29T14:47:06;29.60;78.10
7720;DHT22;3902;49.474;8.616;2022-07-29T14:49:31;29.70;78.50
7720;DHT22;3902;49.474;8.616;2022-07-29T14:51:57;29.70;77.30
7720;DHT22;3902;49.474;8.616;2022-07-29T14:54:23;29.70;77.70
7720;DHT22;3902;49.474;8.616;2022-07-29T14:56:48;29.70;76.50
7720;DHT22;3902;49.474;8.616;2022-07-29T14:59:16;29.80;77.00
7720;DHT22;3902;49.474;8.616;2022-07-29T15:01:42;29.80;77.90
7720;DHT22;3902;49.474;8.616;2022-07-29T15:04:07;29.80;77.00
7720;DHT22;3902;49.474;8.616;2022-07-29T15:06:33;29.80;77.00
7720;DHT22;3902;49.474;8.616;2022-07-29T15:08:59;29.80;76.70
7720;DHT22;3902;49.474;8.616;2022-07-29T15:11:24;29.70;76.50
7720;DHT22;3902;49.474;8.616;2022-07-29T15:13:50;29.60;77.20
7720;DHT22;3902;49.474;8.616;2022-07-29T15:16:16;29.60;78.20
7720;DHT22;3902;49.474;8.616;2022-07-29T15:18:41;29.50;78.00
7720;DHT22;3902;49.474;8.616;2022-07-29T15:21:07;29.50;77.90
7720;DHT22;3902;49.474;8.616;2022-07-29T15:23:33;29.60;78.90
7720;DHT22;3902;49.474;8.616;2022-07-29T15:26:01;29.60;78.90
7720;DHT22;3902;49.474;8.616;2022-07-29T15:28:27;29.50;78.50
7720;DHT22;3902;49.474;8.616;2022-07-29T15:30:53;29.50;78.80
7720;DHT22;3902;49.474;8.616;2022-07-29T15:33:19;29.50;78.50
7720;DHT22;3902;49.474;8.616;2022-07-29T15:35:45;29.60;79.50
7720;DHT22;3902;49.474;8.616;2022-07-29T15:38:10;29.60;78.50
7720;DHT22;3902;49.474;8.616;2022-07-29T15:40:37;29.80;78.50
7720;DHT22;3902;49.474;8.616;2022-07-29T15:43:04;29.80;78.60
7720;DHT22;3902;49.474;8.616;2022-07-29T15:45:35;29.90;78.30
7720;DHT22;3902;49.474;8.616;2022-07-29T15:48:02;29.80;77.20
7720;DHT22;3902;49.474;8.616;2022-07-29T15:50:27;29.70;76.30
7720;DHT22;3902;49.474;8.616;2022-07-29T15:52:53;29.80;76.90
7720;DHT22;3902;49.474;8.616;2022-07-29T15:55:18;29.80;76.60
7720;DHT22;3902;49.474;8.616;2022-07-29T15:57:44;29.80;76.90
7720;DHT22;3902;49.474;8.616;2022-07-29T16:00:10;29.80;76.00
7720;DHT22;3902;49.474;8.616;2022-07-29T16:02:35;29.80;76.60
7720;DHT22;3902;49.474;8.616;2022-07-29T16:05:02;29.80;76.50
7720;DHT22;3902;49.474;8.616;2022-07-29T16:07:28;29.70;75.90
7720;DHT22;3902;49.474;8.616;2022-07-29T16:09:53;29.70;76.10
7720;DHT22;3902;49.474;8.616;2022-07-29T16:12:19;29.80;76.00
7720;DHT22;3902;49.474;8.616;2022-07-29T16:14:44;29.80;75.10
7720;DHT22;3902;49.474;8.616;2022-07-29T16:17:10;29.70;75.00
7720;DHT22;3902;49.474;8.616;2022-07-29T16:19:36;29.60;75.00
7720;DHT22;3902;49.474;8.616;2022-07-29T16:22:02;29.60;74.90
7720;DHT22;3902;49.474;8.616;2022-07-29T16:24:27;29.50;75.10
7720;DHT22;3902;49.474;8.616;2022-07-29T16:26:55;29.50;74.80
7720;DHT22;3902;49.474;8.616;2022-07-29T16:29:20;29.50;74.80
7720;DHT22;3902;49.474;8.616;2022-07-29T16:31:46;29.60;76.00
7720;DHT22;3902;49.474;8.616;2022-07-29T16:34:11;29.60;75.20
7720;DHT22;3902;49.474;8.616;2022-07-29T16:36:37;29.70;74.50
7720;DHT22;3902;49.474;8.616;2022-07-29T16:39:03;29.70;73.20
7720;DHT22;3902;49.474;8.616;2022-07-29T16:41:30;29.70;73.60
7720;DHT22;3902;49.474;8.616;2022-07-29T16:43:55;29.70;72.70
7720;DHT22;3902;49.474;8.616;2022-07-29T16:46:21;29.50;72.10
7720;DHT22;3902;49.474;8.616;2022-07-29T16:48:47;29.50;73.10
7720;DHT22;3902;49.474;8.616;2022-07-29T16:51:12;29.40;72.40
7720;DHT22;3902;49.474;8.616;2022-07-29T16:53:38;29.20;72.30